Time;durP1;ratioP1;P1;durP2;ratioP2;P2;SDS_P1;SDS_P2;PMS_P1;PMS_P2;Temp;Humidity;BMP_temperature;BMP_pressure;BME280_temperature;BME280_humidity;BME280_pressure;Samples;Min_cycle;Max_cycle;Signal;HPM_P1;HPM_P2
2021/10/12 00:00:36;;;;;;;20.85;9.40;;;;;;;7.81;55.03;99484.25;5054493;28;20721;-64
2021/10/12 00:03:02;;;;;;;19.08;9.63;;;;;;;7.80;55.27;99480.81;5054622;28;20135;-63
2021/10/12 00:05:28;;;;;;;16.75;9.23;;;;;;;7.80;55.35;99486.09;5070998;28;20048;-63
2021/10/12 00:07:55;;;;;;;17.45;9.50;;;;;;;7.82;55.45;99476.09;5070942;28;20052;-63
2021/10/12 00:10:21;;;;;;;18.55;10.25;;;;;;;7.83;55.48;99479.56;5071097;28;20109;-63
2021/10/12 00:12:46;;;;;;;16.63;9.50;;;;;;;7.84;55.34;99474.06;5072391;28;20047;-63
2021/10/12 00:15:12;;;;;;;21.58;10.18;;;;;;;7.86;55.12;99471.22;5070824;28;20115;-64
2021/10/12 00:17:38;;;;;;;16.98;9.20;;;;;;;7.86;55.42;99474.66;5070786;28;20506;-65
2021/10/12 00:20:07;;;;;;;21.40;10.52;;;;;;;7.88;55.48;99477.06;5072038;28;20052;-63
2021/10/12 00:22:34;;;;;;;19.52;10.45;;;;;;;7.88;55.35;99466.50;5070748;28;20040;-63
2021/10/12 00:25:01;;;;;;;16.95;9.63;;;;;;;7.90;55.43;99470.53;5070768;28;20486;-63
2021/10/12 00:27:28;;;;;;;17.13;10.50;;;;;;;7.91;55.38;99469.53;5071843;28;20524;-63
2021/10/12 00:29:54;;;;;;;25.42;11.00;;;;;;;7.90;55.69;99470.53;5070724;28;20044;-63
2021/10/12 00:32:20;;;;;;;21.02;11.07;;;;;;;7.89;55.88;99462.88;5072111;28;20048;-64
2021/10/12 00:34:48;;;;;;;19.90;10.82;;;;;;;7.91;55.59;99468.72;5072105;28;20426;-64
2021/10/12 00:37:14;;;;;;;19.85;10.60;;;;;;;7.90;55.89;99461.81;5070476;28;20044;-65
2021/10/12 00:39:41;;;;;;;18.83;10.88;;;;;;;7.84;55.96;99462.69;5071987;28;20118;-63
2021/10/12 00:42:06;;;;;;;18.55;10.98;;;;;;;7.86;56.47;99466.75;5071690;28;20066;-64
2021/10/12 00:44:34;;;;;;;20.60;10.32;;;;;;;7.87;56.28;99460.44;5070405;28;20037;-64
2021/10/12 00:47:00;;;;;;;21.27;11.23;;;;;;;7.85;56.03;99461.66;5070274;28;20140;-64
2021/10/12 00:49:26;;;;;;;19.52;10.93;;;;;;;7.82;56.61;99454.97;5071804;28;20037;-63
2021/10/12 00:51:52;;;;;;;21.95;10.65;;;;;;;7.81;56.70;99450.75;5071436;28;20524;-64
2021/10/12 00:54:18;;;;;;;21.52;11.38;;;;;;;7.81;57.21;99445.47;5071657;28;20044;-63
2021/10/12 00:56:44;;;;;;;23.98;11.35;;;;;;;7.81;56.87;99449.94;5070210;28;20353;-64
2021/10/12 00:59:09;;;;;;;25.00;11.60;;;;;;;7.81;56.93;99456.03;5053305;28;20037;-63
2021/10/12 01:01:39;;;;;;;22.38;12.18;;;;;;;7.78;56.83;99443.25;5052866;28;20048;-64
2021/10/12 01:04:06;;;;;;;21.00;11.77;;;;;;;7.77;57.26;99440.84;5070172;28;20044;-63
2021/10/12 01:06:32;;;;;;;22.23;11.30;;;;;;;7.80;56.60;99443.88;5069994;28;20506;-63
2021/10/12 01:08:58;;;;;;;21.58;11.70;;;;;;;7.78;57.12;99439.81;5071419;28;20043;-63
2021/10/12 01:11:24;;;;;;;24.40;11.85;;;;;;;7.80;56.92;99441.22;5071132;28;20068;-63
2021/10/12 01:13:49;;;;;;;24.40;12.95;;;;;;;7.78;57.25;99443.25;5071306;28;20081;-62
2021/10/12 01:16:16;;;;;;;23.75;12.20;;;;;;;7.77;56.79;99444.28;5069832;28;20041;-64
2021/10/12 01:19:05;;;;;;;20.35;11.63;;;;;;;7.82;57.09;99448.91;5071375;28;20037;-63
2021/10/12 01:21:42;;;;;;;25.27;12.60;;;;;;;7.78;56.97;99448.53;5071202;28;20461;-63
2021/10/12 01:24:09;;;;;;;25.55;11.80;;;;;;;7.75;56.85;99448.97;5071271;28;20501;-63
2021/10/12 01:26:36;;;;;;;32.50;13.52;;;;;;;7.76;56.91;99449.78;5069617;28;20098;-63
2021/10/12 01:29:05;;;;;;;25.08;12.98;;;;;;;7.71;57.66;99440.69;5069843;28;20048;-61
2021/10/12 01:31:31;;;;;;;24.60;12.63;;;;;;;7.71;57.59;99439.88;5070978;28;20470;-63
2021/10/12 01:33:56;;;;;;;29.05;14.05;;;;;;;7.69;57.74;99434.00;5069858;28;20127;-63
2021/10/12 01:36:22;;;;;;;22.45;12.70;;;;;;;7.67;57.84;99436.84;5070914;28;20044;-62
2021/10/12 01:38:48;;;;;;;22.70;12.95;;;;;;;7.66;57.88;99435.25;5071118;28;20308;-63
2021/10/12 01:41:15;;;;;;;29.13;13.18;;;;;;;7.67;57.60;99436.06;5069550;28;20053;-64
2021/10/12 01:43:41;;;;;;;26.17;13.63;;;;;;;7.60;57.83;99425.56;5071000;28;20071;-64
2021/10/12 01:46:07;;;;;;;29.70;12.80;;;;;;;7.60;57.83;99422.94;5070703;28;20126;-65
2021/10/12 01:48:34;;;;;;;31.58;14.25;;;;;;;7.64;57.74;99418.03;5070843;28;20041;-62
2021/10/12 01:51:00;;;;;;;28.52;14.43;;;;;;;7.61;57.72;99418.44;5069453;28;20041;-63
2021/10/12 01:53:26;;;;;;;20.05;13.13;;;;;;;7.54;58.08;99415.09;5069491;28;20513;-63
2021/10/12 01:55:51;;;;;;;24.23;13.10;;;;;;;7.56;58.12;99420.94;5071006;28;20359;-64
2021/10/12 01:58:17;;;;;;;27.27;14.18;;;;;;;7.49;58.45;99413.88;5069281;28;20037;-63
2021/10/12 02:00:44;;;;;;;31.40;13.57;;;;;;;7.47;58.36;99415.13;5069477;28;20119;-65
2021/10/12 02:03:09;;;;;;;26.98;14.63;;;;;;;7.44;58.01;99415.56;5069509;28;20049;-64
2021/10/12 02:05:35;;;;;;;25.40;13.68;;;;;;;7.44;58.53;99418.19;5069489;28;20540;-64
2021/10/12 02:08:01;;;;;;;26.25;14.73;;;;;;;7.41;58.60;99411.53;5069583;28;20041;-63
2021/10/12 02:10:27;;;;;;;31.17;14.50;;;;;;;7.42;58.45;99410.50;5070413;28;20068;-64
2021/10/12 02:12:52;;;;;;;28.75;13.93;;;;;;;7.34;58.32;99402.06;5072475;28;20037;-63
2021/10/12 02:15:18;;;;;;;31.52;15.70;;;;;;;7.35;58.55;99411.56;5074414;28;20501;-64
2021/10/12 02:17:44;;;;;;;30.25;14.68;;;;;;;7.30;58.60;99404.31;5073122;28;20123;-63
2021/10/12 02:20:10;;;;;;;27.60;14.52;;;;;;;7.26;58.89;99408.41;5074434;28;20475;-65
2021/10/12 02:22:37;;;;;;;31.98;14.30;;;;;;;7.23;59.19;99407.00;5073095;28;20048;-64
2021/10/12 02:25:05;;;;;;;29.00;14.57;;;;;;;7.21;59.13;99402.97;5056622;28;20052;-63
2021/10/12 02:27:30;;;;;;;29.67;14.25;;;;;;;7.17;59.34;99399.94;5073326;28;20087;-64
2021/10/12 02:29:56;;;;;;;31.77;15.02;;;;;;;7.16;59.41;99408.88;5056158;28;20040;-63
2021/10/12 02:32:22;;;;;;;32.15;15.35;;;;;;;7.14;59.47;99405.66;5072831;28;20036;-63
2021/10/12 02:34:48;;;;;;;31.20;14.93;;;;;;;7.12;59.59;99398.97;5056316;28;20044;-63
2021/10/12 02:37:14;;;;;;;25.98;15.15;;;;;;;7.09;59.78;99404.69;5039332;28;20050;-64
2021/10/12 02:39:40;;;;;;;25.55;14.23;;;;;;;7.04;59.90;99400.06;5074401;28;20175;-63
2021/10/12 02:42:06;;;;;;;28.13;14.98;;;;;;;7.05;59.88;99397.19;5055863;28;20063;-64
2021/10/12 02:44:32;;;;;;;29.25;14.68;;;;;;;7.03;59.87;99390.53;5072688;28;20033;-63
2021/10/12 02:46:58;;;;;;;31.90;15.15;;;;;;;7.00;60.12;99396.22;5073955;28;20068;-64
2021/10/12 02:49:23;;;;;;;29.75;14.57;;;;;;;6.98;60.19;99396.44;5072669;28;20494;-63
2021/10/12 02:51:49;;;;;;;28.02;14.18;;;;;;;6.95;60.12;99398.72;5072542;28;20062;-64
2021/10/12 02:54:15;;;;;;;26.00;14.85;;;;;;;6.88;60.10;99401.38;5073988;28;20098;-63
2021/10/12 02:56:41;;;;;;;28.10;14.52;;;;;;;6.83;60.58;99393.31;5073723;28;20075;-63
2021/10/12 02:59:07;;;;;;;32.22;15.95;;;;;;;6.77;60.81;99394.97;5055608;28;20627;-63
2021/10/12 03:01:33;;;;;;;31.38;15.38;;;;;;;6.74;60.90;99387.50;5072267;28;20119;-63
2021/10/12 03:03:59;;;;;;;28.52;15.30;;;;;;;6.71;61.14;99387.91;5072210;28;20065;-62
2021/10/12 03:06:25;;;;;;;28.05;15.63;;;;;;;6.59;61.48;99379.88;5072336;28;20557;-63
2021/10/12 03:08:50;;;;;;;29.70;14.95;;;;;;;6.62;61.23;99386.56;5072254;28;20525;-63
2021/10/12 03:11:17;;;;;;;33.45;16.08;;;;;;;6.60;61.38;99385.94;5055312;28;20060;-62
2021/10/12 03:13:42;;;;;;;30.88;16.17;;;;;;;6.54;61.71;99381.53;5072116;28;20508;-62
2021/10/12 03:16:08;;;;;;;33.00;16.02;;;;;;;6.51;61.39;99379.31;5073269;28;20044;-64
2021/10/12 03:18:35;;;;;;;29.80;14.70;;;;;;;6.48;61.79;99377.09;5072054;28;20036;-63
2021/10/12 03:21:01;;;;;;;30.42;15.13;;;;;;;6.43;61.28;99369.81;5072018;28;20548;-63
2021/10/12 03:23:27;;;;;;;27.40;15.50;;;;;;;6.42;61.86;99373.50;5071136;28;20033;-63
2021/10/12 03:25:53;;;;;;;29.23;16.15;;;;;;;6.38;61.96;99369.63;5072825;28;20074;-63
2021/10/12 03:28:19;;;;;;;30.17;15.50;;;;;;;6.30;62.62;99370.72;5071715;28;20040;-63
2021/10/12 03:30:45;;;;;;;27.42;15.20;;;;;;;6.27;62.74;99373.75;5073218;28;20056;-63
2021/10/12 03:33:11;;;;;;;30.20;15.88;;;;;;;6.29;62.74;99368.28;5071580;28;20044;-64
2021/10/12 03:35:45;;;;;;;36.65;16.10;;;;;;;6.27;62.95;99371.13;5072967;28;20051;-62
2021/10/12 03:38:10;;;;;;;31.23;16.48;;;;;;;6.25;62.85;99373.16;5072950;28;20090;-63
2021/10/12 03:40:36;;;;;;;39.75;18.17;;;;;;;6.23;63.31;99363.84;5055250;28;20055;-67
2021/10/12 03:43:02;;;;;;;30.60;16.90;;;;;;;6.21;63.29;99365.91;5072805;28;20375;-63
2021/10/12 03:45:28;;;;;;;42.60;16.52;;;;;;;6.22;63.28;99357.78;5071302;28;20131;-65
2021/10/12 03:47:54;;;;;;;39.10;17.60;;;;;;;6.24;63.84;99349.69;5072691;28;20082;-63
2021/10/12 03:50:19;;;;;;;47.70;18.20;;;;;;;6.20;63.71;99359.81;5071386;28;20040;-64
2021/10/12 03:52:45;;;;;;;35.17;16.23;;;;;;;6.18;63.54;99353.97;5054629;28;20048;-63
2021/10/12 03:55:13;;;;;;;38.75;18.15;;;;;;;6.21;63.62;99355.38;5072339;28;20114;-64
2021/10/12 03:57:38;;;;;;;32.90;17.92;;;;;;;6.22;63.37;99341.97;5072389;28;20472;-63
2021/10/12 04:00:06;;;;;;;36.88;17.58;;;;;;;6.28;63.47;99351.66;5072572;28;20040;-63
2021/10/12 04:02:33;;;;;;;39.67;17.38;;;;;;;6.31;63.26;99359.16;5071163;28;20135;-64
2021/10/12 04:04:59;;;;;;;40.05;17.75;;;;;;;6.35;62.99;99360.38;5072691;28;20119;-63
2021/10/12 04:07:25;;;;;;;43.83;17.98;;;;;;;6.39;63.36;99354.69;5070932;28;20055;-64
2021/10/12 04:09:51;;;;;;;31.38;16.67;;;;;;;6.40;63.10;99354.44;5072336;28;20123;-64
2021/10/12 04:12:18;;;;;;;32.35;16.00;;;;;;;6.40;63.16;99357.09;5072210;28;20052;-63
2021/10/12 04:14:43;;;;;;;38.15;16.65;;;;;;;6.33;62.92;99351.84;5072500;28;20045;-63
2021/10/12 04:17:09;;;;;;;32.03;17.48;;;;;;;6.41;63.19;99360.50;5072085;28;20383;-63
2021/10/12 04:19:35;;;;;;;36.75;16.48;;;;;;;6.37;63.06;99360.13;5053774;28;20139;-62
2021/10/12 04:22:01;;;;;;;35.50;16.63;;;;;;;6.35;63.56;99362.16;5070655;28;20044;-64
2021/10/12 04:24:26;;;;;;;27.42;16.30;;;;;;;6.32;63.11;99359.94;5072165;28;20557;-63
2021/10/12 04:26:52;;;;;;;33.60;16.65;;;;;;;6.34;63.26;99360.56;5072032;28;20506;-65
2021/10/12 04:29:18;;;;;;;29.33;15.75;;;;;;;6.35;63.16;99359.53;5072002;28;20040;-63
2021/10/12 04:31:43;;;;;;;30.98;16.25;;;;;;;6.36;63.22;99354.06;5071622;28;20184;-64
2021/10/12 04:34:09;;;;;;;29.70;16.15;;;;;;;6.35;63.39;99354.25;5071884;28;20079;-63
2021/10/12 04:36:35;;;;;;;32.50;16.88;;;;;;;6.39;62.78;99350.22;5071438;28;20055;-64
2021/10/12 04:39:01;;;;;;;29.55;15.60;;;;;;;6.43;62.86;99353.22;5054007;28;20044;-63
2021/10/12 04:41:27;;;;;;;37.60;16.25;;;;;;;6.42;63.31;99356.88;5053511;28;20513;-64
2021/10/12 04:43:52;;;;;;;32.83;16.20;;;;;;;6.43;62.81;99345.31;5071657;28;20070;-62
2021/10/12 04:46:18;;;;;;;33.40;15.75;;;;;;;6.39;63.02;99342.31;5071347;28;20081;-65
2021/10/12 04:48:44;;;;;;;29.25;16.73;;;;;;;6.52;62.84;99354.59;5069893;28;20036;-63
2021/10/12 04:51:10;;;;;;;32.35;17.05;;;;;;;6.53;63.06;99350.91;5071672;28;20498;-64
2021/10/12 04:53:36;;;;;;;31.58;16.23;;;;;;;6.57;62.81;99347.66;5071457;28;20040;-63
2021/10/12 04:56:02;;;;;;;32.22;16.77;;;;;;;6.65;62.59;99353.69;5053788;28;20080;-65
2021/10/12 04:58:27;;;;;;;30.88;15.77;;;;;;;6.70;62.10;99348.59;5071373;28;20044;-64
2021/10/12 05:00:53;;;;;;;28.63;15.70;;;;;;;6.74;61.84;99340.06;5071501;28;20040;-63
2021/10/12 05:03:19;;;;;;;29.92;15.73;;;;;;;6.84;61.70;99352.75;5071587;28;20044;-63
2021/10/12 05:05:45;;;;;;;28.63;15.77;;;;;;;6.94;61.26;99345.19;5036819;28;20096;-63
2021/10/12 05:08:11;;;;;;;31.60;15.32;;;;;;;6.98;61.10;99343.75;5071254;28;20044;-64
2021/10/12 05:10:36;;;;;;;30.27;15.75;;;;;;;7.04;60.79;99347.34;5053164;28;20044;-64
2021/10/12 05:13:02;;;;;;;31.02;16.83;;;;;;;7.11;61.27;99353.34;5071544;28;20048;-64
2021/10/12 05:15:29;;;;;;;29.30;17.17;;;;;;;7.14;61.26;99344.22;5071116;28;20047;-64
2021/10/12 05:17:56;;;;;;;33.58;17.73;;;;;;;7.20;60.90;99344.16;5071118;28;20040;-63
2021/10/12 05:20:22;;;;;;;33.60;16.13;;;;;;;7.28;60.81;99349.16;5069747;28;20123;-64
2021/10/12 05:22:48;;;;;;;28.98;16.67;;;;;;;7.35;60.34;99346.44;5069768;28;20714;-64
2021/10/12 05:25:15;;;;;;;34.03;15.73;;;;;;;7.40;60.09;99345.81;5069859;28;20131;-63
2021/10/12 05:27:41;;;;;;;37.25;19.00;;;;;;;7.45;59.81;99343.34;5071239;28;20044;-64
2021/10/12 05:30:10;;;;;;;34.47;17.60;;;;;;;7.51;59.93;99345.91;5071073;28;20566;-63
2021/10/12 05:32:38;;;;;;;37.70;16.90;;;;;;;7.50;59.56;99349.56;5069773;28;20135;-64
2021/10/12 05:35:05;;;;;;;30.88;15.88;;;;;;;7.52;58.95;99346.69;5069692;28;20048;-64
2021/10/12 05:37:31;;;;;;;32.10;15.77;;;;;;;7.50;59.47;99335.59;5071022;28;20446;-65
2021/10/12 05:39:57;;;;;;;29.88;17.27;;;;;;;7.58;58.66;99337.13;5070823;28;20044;-64
2021/10/12 05:42:23;;;;;;;31.38;16.65;;;;;;;7.60;58.55;99341.16;5070977;28;20048;-64
2021/10/12 05:44:49;;;;;;;30.90;16.60;;;;;;;7.66;59.34;99342.91;5071325;28;20474;-64
2021/10/12 05:47:14;;;;;;;33.70;17.05;;;;;;;7.64;58.29;99333.59;5071941;28;20048;-64
2021/10/12 05:49:41;;;;;;;28.98;16.55;;;;;;;7.73;58.38;99338.38;5075487;28;20068;-64
2021/10/12 05:52:08;;;;;;;32.90;16.48;;;;;;;7.79;58.21;99334.03;5074014;28;20181;-63
2021/10/12 05:54:39;;;;;;;30.08;16.67;;;;;;;7.87;57.86;99339.03;5073736;28;20051;-64
2021/10/12 05:57:05;;;;;;;27.90;15.60;;;;;;;7.91;57.88;99340.22;5074991;28;20049;-64
2021/10/12 05:59:32;;;;;;;36.95;18.20;;;;;;;7.96;57.62;99339.53;5073757;28;20521;-63
2021/10/12 06:01:59;;;;;;;30.20;16.48;;;;;;;7.97;57.62;99336.69;5073752;28;20420;-64
2021/10/12 06:04:25;;;;;;;30.35;16.27;;;;;;;8.01;57.62;99331.75;5056931;28;20037;-63
2021/10/12 06:06:52;;;;;;;43.65;23.45;;;;;;;8.16;57.60;99339.28;5073239;28;20055;-62
2021/10/12 06:09:19;;;;;;;33.88;18.70;;;;;;;8.23;57.32;99340.00;5073502;28;20044;-63
2021/10/12 06:11:44;;;;;;;34.05;17.98;;;;;;;8.31;57.75;99339.69;5056564;28;20095;-64
2021/10/12 06:14:10;;;;;;;32.25;16.90;;;;;;;8.32;57.00;99341.31;5073215;28;20040;-64
2021/10/12 06:16:36;;;;;;;41.47;18.13;;;;;;;8.49;56.72;99343.38;5056669;28;20148;-64
2021/10/12 06:19:02;;;;;;;34.63;18.60;;;;;;;8.61;56.15;99345.00;5074722;28;20135;-65
2021/10/12 06:21:30;;;;;;;33.75;18.42;;;;;;;8.71;56.00;99339.19;5074627;28;20060;-63
2021/10/12 06:23:56;;;;;;;36.28;17.65;;;;;;;8.76;56.00;99341.13;5074374;28;20112;-63
2021/10/12 06:26:22;;;;;;;38.90;18.25;;;;;;;8.77;56.13;99340.94;5074060;28;20041;-64
2021/10/12 06:28:48;;;;;;;37.47;17.75;;;;;;;8.77;55.98;99340.94;5072914;28;20041;-64
2021/10/12 06:31:14;;;;;;;37.33;19.33;;;;;;;8.79;56.51;99345.97;5074206;28;20545;-64
2021/10/12 06:33:40;;;;;;;43.08;18.10;;;;;;;8.78;56.21;99337.25;5056161;28;20490;-63
2021/10/12 06:36:06;;;;;;;35.75;20.38;;;;;;;8.78;55.94;99352.31;5073903;28;20048;-65
2021/10/12 06:38:32;;;;;;;40.80;19.25;;;;;;;8.82;55.97;99345.50;5072964;28;20139;-64
2021/10/12 06:40:58;;;;;;;37.30;20.13;;;;;;;8.87;56.15;99333.22;5072791;28;20144;-65
2021/10/12 06:43:24;;;;;;;34.58;18.63;;;;;;;8.93;55.90;99339.44;5073991;28;20040;-64
2021/10/12 06:45:49;;;;;;;41.42;19.00;;;;;;;9.01;55.46;99335.69;5072642;28;20047;-64
2021/10/12 06:48:15;;;;;;;37.08;18.83;;;;;;;9.04;55.49;99324.66;5072692;28;20044;-64
2021/10/12 06:50:41;;;;;;;36.72;18.90;;;;;;;9.09;55.22;99333.50;5039542;28;20040;-64
2021/10/12 06:53:07;;;;;;;38.28;19.95;;;;;;;9.12;54.35;99339.34;5072383;28;20129;-65
2021/10/12 06:55:33;;;;;;;34.85;18.45;;;;;;;9.15;54.89;99331.78;5073855;28;20094;-65
2021/10/12 06:57:59;;;;;;;38.75;18.98;;;;;;;9.13;54.85;99333.06;5073336;28;20510;-64
2021/10/12 07:00:25;;;;;;;40.17;18.08;;;;;;;9.11;55.29;99327.97;5072789;28;20083;-62
2021/10/12 07:02:51;;;;;;;30.58;17.85;;;;;;;9.15;54.38;99329.16;5073669;28;20036;-64
2021/10/12 07:05:17;;;;;;;36.53;18.40;;;;;;;9.20;54.18;99323.16;5072084;28;20163;-65
2021/10/12 07:07:43;;;;;;;35.72;18.95;;;;;;;9.21;55.16;99322.13;5073309;28;20565;-63
2021/10/12 07:10:10;;;;;;;40.13;20.08;;;;;;;9.27;54.02;99327.31;5073212;28;20135;-64
2021/10/12 07:12:38;;;;;;;34.35;19.20;;;;;;;9.36;53.99;99316.38;5072093;28;20044;-64
2021/10/12 07:15:04;;;;;;;40.25;18.95;;;;;;;9.41;53.80;99309.38;5073396;28;20135;-64
2021/10/12 07:17:31;;;;;;;43.15;18.92;;;;;;;9.44;53.47;99311.56;5072147;28;20040;-62
2021/10/12 07:19:56;;;;;;;38.72;18.58;;;;;;;9.47;53.54;99312.91;5073686;28;20474;-65
2021/10/12 07:22:23;;;;;;;33.83;18.52;;;;;;;9.48;53.37;99314.53;5073355;28;20080;-65
2021/10/12 07:24:50;;;;;;;39.58;18.58;;;;;;;9.51;53.18;99316.72;5073111;28;20032;-62
2021/10/12 07:27:16;;;;;;;36.38;17.58;;;;;;;9.60;53.07;99311.88;5073149;28;20051;-64
2021/10/12 07:29:42;;;;;;;27.80;17.52;;;;;;;9.60;52.70;99311.88;5073657;28;20123;-63
2021/10/12 07:32:08;;;;;;;37.80;16.88;;;;;;;9.64;52.86;99315.66;5073134;28;20079;-63
2021/10/12 07:34:34;;;;;;;35.42;17.83;;;;;;;9.68;52.52;99317.59;5073490;28;20067;-64
2021/10/12 07:36:59;;;;;;;37.53;17.65;;;;;;;9.70;52.94;99317.38;5073284;28;20094;-65
2021/10/12 07:39:25;;;;;;;44.13;17.77;;;;;;;9.72;52.97;99316.09;5071740;28;20127;-63
2021/10/12 07:41:51;;;;;;;31.35;17.45;;;;;;;9.78;52.33;99311.72;5072861;28;20044;-63
2021/10/12 07:44:17;;;;;;;41.97;17.73;;;;;;;9.82;52.24;99304.91;5073216;28;20033;-64
2021/10/12 07:46:43;;;;;;;34.17;17.52;;;;;;;9.86;52.48;99308.72;5072850;28;20499;-65
2021/10/12 07:49:08;;;;;;;33.08;17.33;;;;;;;9.89;51.93;99307.44;5073020;28;20040;-65
2021/10/12 07:51:34;;;;;;;35.65;17.05;;;;;;;9.94;51.78;99313.63;5054843;28;20040;-66
2021/10/12 07:54:01;;;;;;;34.50;17.90;;;;;;;9.94;51.65;99308.34;5071590;28;20040;-65
2021/10/12 07:56:36;;;;;;;30.52;17.08;;;;;;;9.96;51.09;99297.50;5072715;28;20036;-66
2021/10/12 07:59:07;;;;;;;27.92;15.98;;;;;;;10.02;50.93;99304.50;5071607;28;20079;-64
2021/10/12 08:01:34;;;;;;;30.80;15.50;;;;;;;10.04;50.89;99293.69;5071195;28;20048;-65
2021/10/12 08:04:00;;;;;;;35.55;16.48;;;;;;;10.13;50.93;99295.72;5071353;28;20040;-64
2021/10/12 08:06:26;;;;;;;31.50;16.13;;;;;;;10.19;50.64;99301.91;5070854;28;20053;-65
2021/10/12 08:08:52;;;;;;;24.83;13.98;;;;;;;10.21;49.95;99298.00;5070971;28;20052;-64
2021/10/12 08:11:22;;;;;;;30.50;15.98;;;;;;;10.23;49.55;99295.09;5071984;28;20454;-64
2021/10/12 08:13:51;;;;;;;29.23;13.48;;;;;;;10.30;48.59;99292.34;5072398;28;20048;-66
2021/10/12 08:16:20;;;;;;;27.80;13.70;;;;;;;10.33;48.41;99282.06;5038249;28;20052;-65
2021/10/12 08:18:46;;;;;;;38.13;13.65;;;;;;;10.36;48.33;99297.50;5072346;28;20037;-66
2021/10/12 08:21:12;;;;;;;27.42;13.50;;;;;;;10.44;48.60;99288.34;5071995;28;20506;-65
2021/10/12 08:23:40;;;;;;;24.90;12.98;;;;;;;10.45;48.16;99295.25;5038121;28;20094;-63
2021/10/12 08:26:06;;;;;;;33.35;13.10;;;;;;;10.46;48.07;99292.38;5072277;28;20478;-66
2021/10/12 08:28:31;;;;;;;23.80;13.35;;;;;;;10.46;48.49;99278.31;5071039;28;20047;-65
2021/10/12 08:30:57;;;;;;;25.60;13.25;;;;;;;10.49;47.38;99288.44;5072270;28;20119;-64
2021/10/12 08:33:23;;;;;;;25.85;13.90;;;;;;;10.51;47.49;99290.84;5070445;28;20040;-65
2021/10/12 08:35:49;;;;;;;30.65;13.25;;;;;;;10.50;47.63;99294.53;5070483;28;20033;-67
2021/10/12 08:38:19;;;;;;;25.45;13.20;;;;;;;10.48;47.79;99289.50;5070547;28;20418;-65
2021/10/12 08:40:45;;;;;;;26.83;13.00;;;;;;;10.53;47.39;99280.81;5072179;28;20040;-65
2021/10/12 08:43:11;;;;;;;23.92;12.45;;;;;;;10.61;47.62;99278.56;5070560;28;20158;-64
2021/10/12 08:45:39;;;;;;;21.77;11.98;;;;;;;10.67;46.82;99274.94;5053686;28;20036;-65
2021/10/12 08:48:06;;;;;;;25.67;12.27;;;;;;;10.70;47.36;99268.38;5070464;28;20048;-65
2021/10/12 08:50:32;;;;;;;23.67;11.88;;;;;;;10.75;47.04;99271.09;5070590;28;20115;-64
2021/10/12 08:53:01;;;;;;;19.58;12.15;;;;;;;10.79;47.03;99260.81;5071581;28;20451;-65
2021/10/12 08:55:28;;;;;;;25.20;12.30;;;;;;;10.84;46.43;99268.84;5069900;28;20047;-64
2021/10/12 08:57:54;;;;;;;27.02;11.75;;;;;;;10.91;45.70;99258.88;5071528;28;20040;-64
2021/10/12 09:00:21;;;;;;;32.92;12.43;;;;;;;10.98;45.93;99258.72;5053524;28;20065;-64
2021/10/12 09:05:54;;;;;;;23.27;11.57;;;;;;;11.12;46.26;99250.19;5057319;28;20313;-64
2021/10/12 09:08:26;;;;;;;32.72;12.18;;;;;;;11.14;45.80;99261.34;5069913;28;20045;-64
2021/10/12 09:10:53;;;;;;;24.85;12.88;;;;;;;11.15;46.01;99246.25;5069916;28;20475;-64
2021/10/12 09:13:19;;;;;;;21.02;10.70;;;;;;;11.17;44.91;99246.78;5070051;28;20139;-65
2021/10/12 09:16:05;;;;;;;20.73;11.32;;;;;;;11.21;44.92;99241.81;5070206;28;20080;-67
2021/10/12 09:18:59;;;;;;;23.73;11.18;;;;;;;11.27;44.73;99246.16;5071613;28;20074;-65
2021/10/12 09:21:26;;;;;;;29.58;11.15;;;;;;;11.28;45.30;99243.22;5070841;28;20036;-64
2021/10/12 09:24:24;;;;;;;22.23;10.60;;;;;;;11.30;44.85;99243.78;5053218;28;20102;-65
2021/10/12 09:26:55;;;;;;;20.85;9.63;;;;;;;11.35;44.35;99238.56;5071061;28;20052;-65
2021/10/12 09:29:27;;;;;;;49.40;12.88;;;;;;;11.41;44.03;99233.31;5053240;28;20127;-65
2021/10/12 09:31:56;;;;;;;20.20;10.48;;;;;;;11.51;44.14;99236.91;5071088;28;20055;-64
2021/10/12 09:34:23;;;;;;;25.35;10.02;;;;;;;11.59;44.19;99233.81;5069921;28;20048;-64
2021/10/12 09:36:50;;;;;;;19.70;9.45;;;;;;;11.63;44.23;99226.16;5069737;28;20068;-64
2021/10/12 09:39:37;;;;;;;17.85;9.18;;;;;;;11.66;43.67;99220.34;5071261;28;20037;-64
2021/10/12 09:42:05;;;;;;;21.13;10.07;;;;;;;11.72;43.60;99218.56;5070925;28;20047;-65
2021/10/12 09:44:35;;;;;;;13.32;9.20;;;;;;;11.75;43.33;99218.06;5069859;28;20084;-65
2021/10/12 09:47:13;;;;;;;19.00;9.20;;;;;;;11.75;43.48;99202.91;5069650;28;20455;-66
2021/10/12 09:49:40;;;;;;;19.08;9.18;;;;;;;11.83;43.39;99207.00;5071159;28;20040;-64
2021/10/12 09:52:08;;;;;;;24.13;9.60;;;;;;;11.89;42.99;99207.88;5070773;28;20055;-64
2021/10/12 09:54:41;;;;;;;21.08;10.15;;;;;;;11.90;43.20;99204.97;5071182;28;20040;-64
2021/10/12 09:57:07;;;;;;;17.67;9.38;;;;;;;11.93;43.00;99204.44;5070842;28;20040;-65
2021/10/12 09:59:34;;;;;;;19.90;9.20;;;;;;;11.97;42.76;99197.59;5070094;28;20044;-65
2021/10/12 10:02:01;;;;;;;21.50;10.35;;;;;;;11.98;42.93;99195.75;5071213;28;20447;-67
2021/10/12 10:04:28;;;;;;;18.38;9.50;;;;;;;11.96;42.76;99190.66;5071452;28;20123;-64
2021/10/12 10:07:05;;;;;;;21.83;9.65;;;;;;;11.93;43.00;99188.53;5070052;28;20075;-64
2021/10/12 10:09:34;;;;;;;35.78;9.52;;;;;;;11.97;42.09;99186.97;5070072;28;20131;-67
2021/10/12 10:12:01;;;;;;;22.38;8.52;;;;;;;12.02;42.44;99194.97;5070991;28;20048;-66
2021/10/12 10:14:28;;;;;;;12.90;8.57;;;;;;;12.06;41.43;99190.00;5071090;28;20044;-64
2021/10/12 10:16:56;;;;;;;18.65;9.00;;;;;;;12.10;41.46;99187.63;5070107;28;20048;-64
2021/10/12 10:19:26;;;;;;;17.50;8.05;;;;;;;12.13;41.49;99187.91;5069759;28;20044;-65
2021/10/12 10:21:52;;;;;;;25.02;7.45;;;;;;;12.15;41.02;99193.00;5052611;28;20036;-66
2021/10/12 10:24:59;;;;;;;17.75;7.65;;;;;;;12.17;40.91;99189.00;5069271;28;20051;-65
2021/10/12 10:27:36;;;;;;;14.50;7.57;;;;;;;12.21;41.13;99179.50;5069450;28;20040;-65
2021/10/12 10:30:31;;;;;;;16.85;7.15;;;;;;;12.27;40.40;99191.75;5036736;28;20040;-66
2021/10/12 10:33:04;;;;;;;15.85;7.30;;;;;;;12.32;40.60;99185.66;5071278;28;20054;-64
2021/10/12 10:35:43;;;;;;;13.95;7.13;;;;;;;12.35;40.58;99189.69;5073178;28;20040;-66
2021/10/12 10:38:21;;;;;;;12.68;7.00;;;;;;;12.36;40.38;99180.66;5023001;28;20036;-64
2021/10/12 10:40:51;;;;;;;14.85;6.97;;;;;;;12.36;40.35;99183.34;5073987;28;20413;-64
2021/10/12 10:43:17;;;;;;;17.15;7.40;;;;;;;12.36;39.83;99186.78;5073780;28;20072;-65
2021/10/12 10:45:50;;;;;;;9.98;6.50;;;;;;;12.37;39.58;99188.38;5073051;28;20082;-65
2021/10/12 10:48:19;;;;;;;13.20;6.88;;;;;;;12.37;39.62;99190.25;5055653;28;20052;-64
2021/10/12 10:50:45;;;;;;;15.88;6.95;;;;;;;12.39;39.57;99183.63;5073972;28;20449;-67
2021/10/12 10:53:11;;;;;;;25.88;7.70;;;;;;;12.34;39.50;99178.25;5073819;28;20049;-65
2021/10/12 10:55:43;;;;;;;18.40;7.35;;;;;;;12.40;39.25;99179.91;5074171;28;20044;-65
2021/10/12 10:58:16;;;;;;;18.25;7.95;;;;;;;12.36;39.61;99170.84;5055810;28;20049;-66
2021/10/12 11:00:46;;;;;;;15.48;7.38;;;;;;;12.41;39.30;99164.75;5072350;28;20448;-65
2021/10/12 11:03:25;;;;;;;13.02;7.50;;;;;;;12.44;39.74;99172.22;5055994;28;20049;-64
2021/10/12 11:05:52;;;;;;;14.10;7.15;;;;;;;12.42;39.38;99171.69;5073520;28;20083;-66
2021/10/12 11:08:23;;;;;;;12.02;6.85;;;;;;;12.41;39.18;99168.22;5072185;28;20041;-65
2021/10/12 11:11:03;;;;;;;17.88;7.45;;;;;;;12.47;38.61;99169.88;5055645;28;20059;-64
2021/10/12 11:13:32;;;;;;;12.13;6.32;;;;;;;12.52;38.85;99166.44;5055702;28;20543;-64
2021/10/12 11:15:59;;;;;;;20.20;6.88;;;;;;;12.51;38.75;99162.19;5072220;28;20048;-66
2021/10/12 11:18:25;;;;;;;25.75;7.70;;;;;;;12.53;38.73;99164.56;5073501;28;20044;-64
2021/10/12 11:20:57;;;;;;;13.38;6.90;;;;;;;12.55;38.04;99149.97;5073343;28;20044;-65
2021/10/12 11:23:36;;;;;;;23.05;7.25;;;;;;;12.58;37.80;99159.28;5073091;28;20133;-65
2021/10/12 11:26:15;;;;;;;16.10;7.67;;;;;;;12.56;38.33;99156.06;5038486;28;20037;-65
2021/10/12 11:28:47;;;;;;;11.43;6.63;;;;;;;12.52;38.67;99158.44;5055292;28;20051;-65